Time;durP1;ratioP1;P1;durP2;ratioP2;P2;SDS_P1;SDS_P2;PMS_P1;PMS_P2;Temp;Humidity;BMP_temperature;BMP_pressure;BME280_temperature;BME280_humidity;BME280_pressure;Samples;Min_cycle;Max_cycle;Signal;HPM_P1;HPM_P2
2021/12/30 00:02:03;;;;;;;1.38;0.75;;;13.00;99.90;;;;;;6214681;28;20029;-83
2021/12/30 00:05:04;;;;;;;1.38;1.27;;;13.20;99.90;;;;;;6228738;28;20022;-86
2021/12/30 00:08:05;;;;;;;1.95;1.50;;;12.80;99.90;;;;;;6200664;28;20025;-84
2021/12/30 00:11:06;;;;;;;0.43;0.43;;;;;;;;;;6220002;28;20047;-86
2021/12/30 00:14:07;;;;;;;0.60;0.60;;;13.20;99.90;;;;;;6238206;28;20036;-84
2021/12/30 00:17:08;;;;;;;1.45;0.98;;;13.00;99.90;;;;;;6210517;28;20057;-84
2021/12/30 00:20:09;;;;;;;1.00;1.00;;;;;;;;;;6223865;28;20052;-84
2021/12/30 00:23:10;;;;;;;1.20;1.10;;;13.10;99.90;;;;;;6213558;28;20034;-86
2021/12/30 00:26:11;;;;;;;0.77;0.77;;;13.20;99.90;;;;;;6237573;28;20466;-85
2021/12/30 00:29:11;;;;;;;0.85;0.65;;;13.10;99.90;;;;;;6205021;28;20036;-83
2021/12/30 00:32:12;;;;;;;0.52;0.52;;;13.00;99.90;;;;;;6204478;28;20029;-83
2021/12/30 00:35:12;;;;;;;1.48;0.90;;;13.10;99.90;;;;;;6200025;28;20676;-85
2021/12/30 00:38:13;;;;;;;1.88;0.85;;;13.00;99.90;;;;;;6214388;28;20466;-84
2021/12/30 00:41:14;;;;;;;0.95;0.85;;;12.90;99.90;;;;;;6206844;28;20471;-83
2021/12/30 00:44:15;;;;;;;1.10;1.00;;;12.80;99.90;;;;;;6221247;28;20056;-88
2021/12/30 00:47:16;;;;;;;0.90;0.90;;;12.70;99.90;;;;;;6198133;28;20040;-84
2021/12/30 00:50:16;;;;;;;1.95;1.20;;;12.60;99.90;;;;;;6205234;28;20094;-84
2021/12/30 00:53:17;;;;;;;0.90;0.90;;;12.50;99.90;;;;;;6202901;28;20112;-84
2021/12/30 00:56:18;;;;;;;0.60;0.60;;;12.50;99.90;;;;;;6206050;28;20116;-84
2021/12/30 00:59:18;;;;;;;1.15;1.05;;;12.50;99.90;;;;;;6199347;28;20371;-84
2021/12/30 01:02:19;;;;;;;0.85;0.85;;;12.50;99.90;;;;;;6204573;28;20036;-87
2021/12/30 01:05:20;;;;;;;1.20;1.10;;;12.50;99.90;;;;;;6201298;28;20120;-86
2021/12/30 01:08:20;;;;;;;2.20;0.80;;;12.70;99.90;;;;;;6199973;28;20036;-83
2021/12/30 01:11:23;;;;;;;1.48;1.10;;;12.40;99.90;;;;;;6215588;28;20852;-84
2021/12/30 01:14:27;;;;;;;1.00;1.00;;;12.50;99.90;;;;;;6210822;28;20071;-84
2021/12/30 01:17:42;;;;;;;1.75;1.15;;;12.50;99.90;;;;;;6215157;28;20025;-84
2021/12/30 01:20:43;;;;;;;1.15;1.05;;;12.50;99.90;;;;;;6213361;28;20396;-85
2021/12/30 01:23:43;;;;;;;1.02;1.00;;;12.50;99.90;;;;;;6209583;28;20112;-84
2021/12/30 01:26:44;;;;;;;1.48;0.70;;;12.40;99.90;;;;;;6201186;28;20021;-85
2021/12/30 01:29:45;;;;;;;1.00;1.00;;;12.50;99.90;;;;;;6211748;28;20033;-85
2021/12/30 01:32:45;;;;;;;3.53;0.98;;;12.60;99.90;;;;;;6204959;28;20119;-85
2021/12/30 01:35:46;;;;;;;0.57;0.57;;;;;;;;;;6205725;28;20439;-85
2021/12/30 01:38:47;;;;;;;0.80;0.80;;;12.60;99.90;;;;;;6229464;28;20049;-84
2021/12/30 01:41:49;;;;;;;2.50;0.90;;;12.70;99.90;;;;;;6215073;28;20037;-86
2021/12/30 01:44:49;;;;;;;1.05;0.90;;;12.70;99.90;;;;;;6218779;28;20075;-88
2021/12/30 01:47:52;;;;;;;1.25;0.80;;;12.60;99.90;;;;;;6200678;28;20474;-84
2021/12/30 01:50:53;;;;;;;0.98;0.80;;;12.70;99.90;;;;;;6205040;28;20236;-84
2021/12/30 01:53:54;;;;;;;0.55;0.50;;;;;;;;;;6208796;28;20468;-85
2021/12/30 01:57:00;;;;;;;1.30;1.20;;;12.80;99.90;;;;;;6217087;28;20029;-86
2021/12/30 02:00:00;;;;;;;1.65;1.00;;;12.80;99.90;;;;;;6208410;28;20029;-83
2021/12/30 02:03:01;;;;;;;1.40;0.90;;;12.80;99.90;;;;;;6204983;28;20025;-84
2021/12/30 02:06:01;;;;;;;1.10;0.70;;;12.80;99.90;;;;;;6208405;28;20032;-86
2021/12/30 02:09:02;;;;;;;0.70;0.70;;;12.90;99.90;;;;;;6212573;28;20029;-84
2021/12/30 02:12:04;;;;;;;0.88;0.68;;;12.90;99.90;;;;;;6215438;28;20048;-84
2021/12/30 02:15:07;;;;;;;0.50;0.50;;;12.80;99.90;;;;;;6211532;28;20025;-83
2021/12/30 02:18:07;;;;;;;0.55;0.55;;;12.90;99.90;;;;;;6209816;28;20666;-86
2021/12/30 02:21:08;;;;;;;0.63;0.63;;;13.00;99.90;;;;;;6207766;28;20044;-87
2021/12/30 02:24:09;;;;;;;0.95;0.70;;;13.00;99.90;;;;;;6205183;28;20037;-86
2021/12/30 02:27:09;;;;;;;0.50;0.50;;;12.90;99.90;;;;;;6200173;28;20354;-85
2021/12/30 02:30:10;;;;;;;0.40;0.40;;;12.70;99.90;;;;;;6207184;28;20044;-83
2021/12/30 02:33:11;;;;;;;0.50;0.50;;;12.70;99.90;;;;;;6204780;28;20436;-86
2021/12/30 02:36:13;;;;;;;0.20;0.20;;;13.00;99.90;;;;;;6228119;28;20095;-85
2021/12/30 02:39:14;;;;;;;1.47;0.90;;;12.90;99.90;;;;;;6227153;28;20140;-84
2021/12/30 02:42:15;;;;;;;0.60;0.60;;;12.60;99.90;;;;;;6205948;28;20306;-84
2021/12/30 02:45:16;;;;;;;0.55;0.55;;;;;;;;;;6195319;28;20029;-87
2021/12/30 02:48:21;;;;;;;1.45;0.57;;;12.80;99.90;;;;;;6226267;28;20017;-85
2021/12/30 02:51:21;;;;;;;0.40;0.40;;;12.60;99.90;;;;;;6200835;28;20041;-86
2021/12/30 02:54:22;;;;;;;1.05;0.98;;;;;;;;;;6216470;28;20106;-87
2021/12/30 02:57:25;;;;;;;0.70;0.70;;;12.90;99.90;;;;;;6237208;28;20018;-83
2021/12/30 03:00:26;;;;;;;;;;;12.30;99.90;;;;;;6211206;28;20087;-87
2021/12/30 03:03:27;;;;;;;0.52;0.52;;;;;;;;;;6217818;28;19913;-85
2021/12/30 03:06:28;;;;;;;0.50;0.50;;;;;;;;;;6237232;28;20052;-84
2021/12/30 03:09:29;;;;;;;0.47;0.47;;;;;;;;;;6226213;28;20060;-84
2021/12/30 03:12:30;;;;;;;0.50;0.50;;;12.80;99.90;;;;;;6220633;28;20159;-87
2021/12/30 03:15:32;;;;;;;0.80;0.63;;;12.80;99.90;;;;;;6209150;28;20109;-86
2021/12/30 03:18:33;;;;;;;0.63;0.63;;;12.80;99.90;;;;;;6225585;28;20028;-88
2021/12/30 03:21:34;;;;;;;1.40;0.57;;;12.80;99.90;;;;;;6219316;28;20045;-84
2021/12/30 03:24:35;;;;;;;1.85;0.77;;;12.80;99.90;;;;;;6214168;28;20581;-87
2021/12/30 03:27:36;;;;;;;2.22;0.63;;;12.80;99.90;;;;;;6204621;28;20124;-86
2021/12/30 03:30:37;;;;;;;0.70;0.70;;;12.80;99.90;;;;;;6205185;28;20047;-85
2021/12/30 03:33:37;;;;;;;0.50;0.50;;;12.80;99.90;;;;;;6208742;28;20033;-85
2021/12/30 03:36:38;;;;;;;0.40;0.40;;;12.80;99.90;;;;;;6209282;28;20951;-84
2021/12/30 03:39:40;;;;;;;0.52;0.50;;;12.80;99.90;;;;;;6202510;28;20033;-84
2021/12/30 03:42:41;;;;;;;0.47;0.47;;;12.80;99.90;;;;;;6216115;28;20022;-84
2021/12/30 03:45:43;;;;;;;1.10;0.55;;;12.90;99.90;;;;;;6210575;28;20088;-84
2021/12/30 03:48:44;;;;;;;0.75;0.55;;;12.90;99.90;;;;;;6202887;28;20052;-85
2021/12/30 03:51:45;;;;;;;0.40;0.40;;;12.80;99.90;;;;;;6201184;28;20052;-86
2021/12/30 03:54:46;;;;;;;1.42;0.47;;;12.80;99.90;;;;;;6224833;28;20029;-86
2021/12/30 03:57:47;;;;;;;2.10;0.50;;;12.90;99.90;;;;;;6203666;28;20029;-89
2021/12/30 04:00:47;;;;;;;0.70;0.70;;;12.90;99.90;;;;;;6208091;28;20116;-88
2021/12/30 04:03:48;;;;;;;0.57;0.57;;;12.90;99.90;;;;;;6210641;28;20460;-86
2021/12/30 04:06:49;;;;;;;0.57;0.57;;;;;;;;;;6210295;28;20078;-85
2021/12/30 04:09:50;;;;;;;0.80;0.80;;;13.00;99.90;;;;;;6222250;28;20020;-85
2021/12/30 04:12:51;;;;;;;0.82;0.82;;;12.90;99.90;;;;;;6208271;28;20522;-86
2021/12/30 04:15:52;;;;;;;0.77;0.55;;;12.90;99.90;;;;;;6221020;28;20116;-87
2021/12/30 04:18:53;;;;;;;0.60;0.60;;;12.40;99.90;;;;;;6227669;28;20039;-85
2021/12/30 04:21:56;;;;;;;0.57;0.57;;;13.00;99.90;;;;;;6210592;28;20434;-86
2021/12/30 04:24:58;;;;;;;1.83;0.55;;;13.00;99.90;;;;;;6211657;28;20056;-85
2021/12/30 04:27:59;;;;;;;0.70;0.60;;;13.10;99.90;;;;;;6206771;28;20108;-85
2021/12/30 04:30:59;;;;;;;0.90;0.90;;;13.10;99.90;;;;;;6220402;28;20052;-88
2021/12/30 04:34:00;;;;;;;3.25;0.88;;;13.20;99.90;;;;;;6213066;28;20021;-86
2021/12/30 04:37:00;;;;;;;0.47;0.47;;;13.10;99.90;;;;;;6205530;28;20119;-87
2021/12/30 04:40:02;;;;;;;1.17;0.45;;;13.20;99.90;;;;;;6217125;28;20037;-85
2021/12/30 04:43:03;;;;;;;0.98;0.70;;;13.80;99.90;;;;;;6209580;28;20051;-87
2021/12/30 04:46:03;;;;;;;0.50;0.50;;;13.20;99.90;;;;;;6227276;28;20037;-84
2021/12/30 04:49:04;;;;;;;0.77;0.43;;;13.20;99.90;;;;;;6196895;28;20029;-84
2021/12/30 04:52:05;;;;;;;1.02;0.95;;;13.20;99.90;;;;;;6224171;28;20041;-85
2021/12/30 04:55:06;;;;;;;1.38;0.45;;;13.20;99.90;;;;;;6199496;28;20585;-87
2021/12/30 04:58:06;;;;;;;0.63;0.63;;;13.20;99.90;;;;;;6227283;28;20087;-84
2021/12/30 05:01:07;;;;;;;1.20;0.77;;;13.30;99.90;;;;;;6206073;28;20040;-83
2021/12/30 05:04:07;;;;;;;0.40;0.40;;;13.40;99.90;;;;;;6201422;28;20420;-84
2021/12/30 05:07:08;;;;;;;0.25;0.22;;;13.40;99.90;;;;;;6199170;28;20040;-86
2021/12/30 05:10:09;;;;;;;1.75;0.60;;;13.40;99.90;;;;;;6204713;28;20028;-84
2021/12/30 05:13:09;;;;;;;1.75;0.60;;;13.40;99.90;;;;;;6196202;28;20034;-83
2021/12/30 05:16:10;;;;;;;0.60;0.60;;;13.50;99.90;;;;;;6210720;28;20033;-87
2021/12/30 05:19:10;;;;;;;0.88;0.80;;;13.70;99.90;;;;;;6212268;28;20065;-84
2021/12/30 05:22:12;;;;;;;0.50;0.50;;;;;;;;;;6221890;28;20052;-84
2021/12/30 05:25:13;;;;;;;0.75;0.70;;;13.40;99.90;;;;;;6223945;28;20025;-86
2021/12/30 05:28:13;;;;;;;0.80;0.80;;;13.30;99.90;;;;;;6221998;28;20029;-85
2021/12/30 05:31:14;;;;;;;1.08;1.08;;;13.20;99.90;;;;;;6212961;28;20395;-85
2021/12/30 05:34:15;;;;;;;1.50;1.40;;;13.20;99.90;;;;;;6209537;28;20040;-85
2021/12/30 05:37:15;;;;;;;0.75;0.73;;;13.20;99.90;;;;;;6208879;28;20162;-83
2021/12/30 05:40:19;;;;;;;0.73;0.73;;;13.10;99.90;;;;;;6220508;28;20044;-86
2021/12/30 05:43:20;;;;;;;0.52;0.52;;;13.00;99.90;;;;;;6194997;28;20068;-87
2021/12/30 05:46:20;;;;;;;0.50;0.50;;;13.00;99.90;;;;;;6206044;28;20029;-84
2021/12/30 05:49:21;;;;;;;0.63;0.52;;;13.00;99.90;;;;;;6208152;28;20032;-85
2021/12/30 05:52:21;;;;;;;0.60;0.60;;;12.90;99.90;;;;;;6216603;28;20556;-85
2021/12/30 05:55:22;;;;;;;0.50;0.50;;;13.10;99.90;;;;;;6197908;28;20034;-84
2021/12/30 05:58:23;;;;;;;0.88;0.75;;;12.80;99.90;;;;;;6206919;28;20392;-85
2021/12/30 06:01:23;;;;;;;0.68;0.68;;;13.00;99.90;;;;;;6206018;28;20041;-87
2021/12/30 06:04:25;;;;;;;2.90;0.68;;;;;;;;;;6204466;28;20037;-84
2021/12/30 06:07:25;;;;;;;0.57;0.57;;;13.00;99.90;;;;;;6230038;28;20029;-81
2021/12/30 06:10:26;;;;;;;1.20;1.00;;;;;;;;;;6225209;28;20530;-80
2021/12/30 06:13:27;;;;;;;0.32;0.32;;;;;;;;;;6249903;28;20032;-80
2021/12/30 06:16:28;;;;;;;0.60;0.60;;;;;;;;;;6235001;28;20970;-80
2021/12/30 06:19:29;;;;;;;0.90;0.90;;;;;;;;;;6225815;28;20033;-81
2021/12/30 06:22:30;;;;;;;0.77;0.77;;;;;;;;;;6225814;28;20535;-81
2021/12/30 06:25:31;;;;;;;0.60;0.60;;;;;;;;;;6209742;28;20036;-81
2021/12/30 06:28:32;;;;;;;0.50;0.50;;;12.90;99.90;;;;;;6247620;28;20025;-89
2021/12/30 06:31:32;;;;;;;0.60;0.60;;;12.70;99.90;;;;;;6200995;28;20530;-80
2021/12/30 06:34:34;;;;;;;1.33;0.90;;;12.90;99.90;;;;;;6216812;28;20064;-81
2021/12/30 06:37:38;;;;;;;0.50;0.50;;;12.90;99.90;;;;;;6242402;28;20045;-81
2021/12/30 06:40:39;;;;;;;1.23;1.08;;;12.80;99.90;;;;;;6196011;28;20099;-82
2021/12/30 06:43:39;;;;;;;0.80;0.80;;;12.80;99.90;;;;;;6192363;28;20067;-82
2021/12/30 06:46:46;;;;;;;0.80;0.80;;;12.90;99.90;;;;;;6207136;28;20046;-81
2021/12/30 06:49:47;;;;;;;4.20;1.27;;;12.90;99.90;;;;;;6198081;28;20075;-82
2021/12/30 06:52:47;;;;;;;2.95;0.98;;;12.90;99.90;;;;;;6233173;28;20625;-82
2021/12/30 06:55:48;;;;;;;0.77;0.75;;;13.00;99.90;;;;;;6197237;28;20034;-80
2021/12/30 06:58:49;;;;;;;2.08;0.73;;;13.00;99.90;;;;;;6200335;28;20029;-81
2021/12/30 07:01:49;;;;;;;1.48;1.38;;;13.00;99.90;;;;;;6197257;28;20112;-81
2021/12/30 07:04:50;;;;;;;3.83;1.60;;;13.00;99.90;;;;;;6206241;28;20340;-81
2021/12/30 07:07:51;;;;;;;3.28;2.08;;;;;;;;;;6202741;28;20116;-81
2021/12/30 07:10:52;;;;;;;2.00;1.80;;;13.00;99.90;;;;;;6243706;28;20139;-82
2021/12/30 07:13:52;;;;;;;2.25;1.77;;;13.10;99.90;;;;;;6197082;28;20103;-82
2021/12/30 07:16:53;;;;;;;1.35;1.27;;;13.00;99.90;;;;;;6196217;28;20029;-82
2021/12/30 07:19:54;;;;;;;4.25;3.13;;;13.00;99.90;;;;;;6195607;28;20044;-82
2021/12/30 07:22:54;;;;;;;2.63;2.42;;;13.00;99.90;;;;;;6196993;28;20060;-81
2021/12/30 07:25:55;;;;;;;2.08;1.88;;;13.00;99.90;;;;;;6212670;28;20495;-80
2021/12/30 07:28:55;;;;;;;1.70;1.60;;;13.00;99.90;;;;;;6224632;28;20021;-83
2021/12/30 07:31:56;;;;;;;1.58;1.48;;;12.90;99.90;;;;;;6203497;28;20045;-80
2021/12/30 07:34:56;;;;;;;1.73;1.63;;;12.90;99.90;;;;;;6216032;28;20672;-84
2021/12/30 07:37:57;;;;;;;3.20;2.20;;;12.90;99.90;;;;;;6236389;28;20037;-82
2021/12/30 07:40:58;;;;;;;2.30;2.10;;;12.80;99.90;;;;;;6216619;28;20068;-84
2021/12/30 07:43:58;;;;;;;2.58;2.38;;;12.80;99.90;;;;;;6197300;28;20030;-83
2021/12/30 07:47:00;;;;;;;1.90;1.80;;;12.80;99.90;;;;;;6219793;28;20045;-82
2021/12/30 07:50:00;;;;;;;4.28;3.70;;;12.80;99.90;;;;;;6201221;28;20040;-85
2021/12/30 07:53:01;;;;;;;5.40;4.57;;;12.80;99.90;;;;;;6198325;28;20041;-84
2021/12/30 07:56:02;;;;;;;5.43;3.88;;;12.80;99.90;;;;;;6211085;28;20057;-84
2021/12/30 07:59:02;;;;;;;4.57;3.10;;;12.70;99.90;;;;;;6198968;28;20049;-80
2021/12/30 08:02:03;;;;;;;3.67;2.60;;;12.70;99.90;;;;;;6199973;28;20025;-85
2021/12/30 08:05:04;;;;;;;3.13;2.70;;;12.80;99.90;;;;;;6204799;28;20036;-85
2021/12/30 08:08:05;;;;;;;3.53;2.63;;;12.60;99.90;;;;;;6206270;28;20055;-81
2021/12/30 08:11:06;;;;;;;1.65;1.48;;;12.70;99.90;;;;;;6217842;28;20056;-83
2021/12/30 08:14:06;;;;;;;2.22;2.00;;;12.80;99.90;;;;;;6222461;28;20106;-80
2021/12/30 08:17:07;;;;;;;4.90;4.50;;;12.80;99.90;;;;;;6212458;28;20025;-83
2021/12/30 08:20:08;;;;;;;2.40;1.67;;;12.90;99.90;;;;;;6207169;28;20030;-85
2021/12/30 08:23:09;;;;;;;1.90;1.80;;;13.00;99.90;;;;;;6217690;28;20053;-83
2021/12/30 08:26:09;;;;;;;20.02;10.48;;;13.00;99.90;;;;;;6224210;28;20065;-84
2021/12/30 08:29:10;;;;;;;19.88;14.57;;;13.00;99.90;;;;;;6213349;28;20057;-80
2021/12/30 08:32:16;;;;;;;25.85;18.27;;;13.00;99.90;;;;;;6211216;28;20049;-81
2021/12/30 08:35:17;;;;;;;18.52;14.13;;;13.10;99.90;;;;;;6236086;28;20059;-82
2021/12/30 08:38:17;;;;;;;3.80;3.40;;;13.20;99.90;;;;;;6210256;28;20680;-81
2021/12/30 08:41:18;;;;;;;3.53;2.13;;;13.20;99.90;;;;;;6187253;28;20558;-84
2021/12/30 08:44:18;;;;;;;2.63;2.00;;;13.20;99.90;;;;;;6207974;28;20034;-84
2021/12/30 08:47:19;;;;;;;2.33;2.13;;;13.20;99.90;;;;;;6199855;28;20107;-84
2021/12/30 08:50:20;;;;;;;3.08;2.78;;;13.20;99.90;;;;;;6198872;28;20029;-82
2021/12/30 08:53:22;;;;;;;1.90;1.63;;;13.20;99.90;;;;;;6191756;28;20057;-84
2021/12/30 08:56:23;;;;;;;5.00;2.63;;;13.20;99.90;;;;;;6197067;28;20040;-80
2021/12/30 08:59:23;;;;;;;3.55;2.22;;;13.20;99.90;;;;;;6210393;28;20499;-83
2021/12/30 09:02:24;;;;;;;5.68;3.33;;;13.20;99.90;;;;;;6195566;28;20056;-85
2021/12/30 09:05:25;;;;;;;2.65;2.15;;;13.20;99.90;;;;;;6217784;28;20025;-81
2021/12/30 09:08:25;;;;;;;4.05;3.05;;;13.10;99.90;;;;;;6197565;28;20037;-82
2021/12/30 09:11:27;;;;;;;4.05;2.45;;;;;;;;;;6204159;28;20045;-83
2021/12/30 09:14:28;;;;;;;4.20;2.40;;;13.20;99.90;;;;;;6236108;28;20116;-80
2021/12/30 09:17:29;;;;;;;6.35;3.47;;;13.20;99.90;;;;;;6204153;28;20116;-81
2021/12/30 09:20:29;;;;;;;13.00;5.50;;;13.20;99.90;;;;;;6202754;28;20069;-83
2021/12/30 09:23:30;;;;;;;17.25;8.75;;;13.20;99.90;;;;;;6218056;28;20090;-83
2021/12/30 09:26:31;;;;;;;4.97;2.40;;;13.10;99.90;;;;;;6189621;28;20432;-80
2021/12/30 09:29:31;;;;;;;15.77;10.27;;;13.20;99.90;;;;;;6186136;28;20030;-80
2021/12/30 09:32:32;;;;;;;4.00;2.60;;;13.50;99.90;;;;;;6197055;28;20111;-83
2021/12/30 09:35:32;;;;;;;2.35;2.17;;;13.40;99.90;;;;;;6202429;28;20029;-83
2021/12/30 09:38:33;;;;;;;4.35;4.00;;;13.50;99.90;;;;;;6211702;28;20502;-80
2021/12/30 09:41:35;;;;;;;2.30;2.10;;;13.60;99.90;;;;;;6202909;28;20487;-80
2021/12/30 09:44:36;;;;;;;6.93;3.73;;;;;;;;;;6205093;28;20030;-80
2021/12/30 09:47:37;;;;;;;5.63;3.35;;;;;;;;;;6238592;28;20272;-80
2021/12/30 09:50:46;;;;;;;5.18;3.08;;;13.70;99.90;;;;;;6213235;28;20055;-82
2021/12/30 09:53:49;;;;;;;7.50;3.85;;;13.70;99.90;;;;;;6217923;28;20029;-83
2021/12/30 09:56:50;;;;;;;9.15;3.95;;;14.00;99.90;;;;;;6203421;28;20175;-82
2021/12/30 09:59:51;;;;;;;8.07;3.78;;;;;;;;;;6210978;28;20428;-82
2021/12/30 10:02:52;;;;;;;11.70;7.43;;;13.80;99.90;;;;;;6219671;28;20076;-83
2021/12/30 10:05:53;;;;;;;11.40;5.68;;;13.70;99.90;;;;;;6218023;28;20025;-83
2021/12/30 10:09:09;;;;;;;8.25;4.70;;;13.70;99.90;;;;;;6189627;28;20080;-82
2021/12/30 10:12:10;;;;;;;13.65;5.50;;;13.90;99.90;;;;;;6205052;28;20492;-83
2021/12/30 10:15:11;;;;;;;5.07;2.70;;;14.00;99.90;;;;;;6212536;28;20029;-83
2021/12/30 10:18:11;;;;;;;2.83;2.40;;;14.70;99.90;;;;;;6192736;28;20057;-81
2021/12/30 10:21:17;;;;;;;5.57;3.08;;;14.20;99.90;;;;;;6206854;28;20034;-81
2021/12/30 10:24:18;;;;;;;4.20;1.98;;;14.40;99.90;;;;;;6225235;28;20061;-81
2021/12/30 10:27:23;;;;;;;4.18;2.90;;;14.60;99.90;;;;;;6226898;28;20472;-79
2021/12/30 10:30:33;;;;;;;2.97;2.50;;;14.50;99.90;;;;;;6209950;28;20431;-85
2021/12/30 10:33:47;;;;;;;2.03;1.83;;;14.80;99.90;;;;;;6208725;28;20392;-81
2021/12/30 10:36:49;;;;;;;1.58;1.48;;;14.80;99.90;;;;;;6212946;28;20052;-85
2021/12/30 10:39:49;;;;;;;3.30;2.00;;;14.90;99.90;;;;;;6198604;28;20057;-83
2021/12/30 10:42:50;;;;;;;9.85;6.13;;;15.00;99.90;;;;;;6230916;28;20585;-82
2021/12/30 10:46:23;;;;;;;4.95;2.45;;;15.20;99.90;;;;;;6242388;28;21120;-82
2021/12/30 10:49:26;;;;;;;2.20;1.80;;;15.00;99.90;;;;;;6130444;29;20050;-85
2021/12/30 10:52:29;;;;;;;3.45;2.03;;;15.10;99.90;;;;;;6123561;29;20634;-91
2021/12/30 10:55:32;;;;;;;4.70;2.40;;;15.00;99.90;;;;;;6121626;29;20035;-86
2021/12/30 10:58:33;;;;;;;3.08;2.17;;;15.10;99.90;;;;;;6127820;29;20071;-87
2021/12/30 11:01:50;;;;;;;4.55;2.45;;;15.10;99.90;;;;;;6133715;29;20037;-84
2021/12/30 11:04:56;;;;;;;3.08;2.28;;;15.00;99.90;;;;;;6119302;29;20551;-82
2021/12/30 11:07:56;;;;;;;7.00;5.18;;;15.00;99.90;;;;;;6120752;29;20128;-84
2021/12/30 11:10:57;;;;;;;4.05;2.30;;;15.20;99.90;;;;;;6117330;29;20039;-85
2021/12/30 11:14:04;;;;;;;2.75;2.30;;;15.50;99.90;;;;;;6118359;29;20453;-82
2021/12/30 11:17:12;;;;;;;2.78;2.15;;;15.70;99.90;;;;;;6127182;29;20042;-83
2021/12/30 11:20:15;;;;;;;2.78;2.25;;;16.20;99.90;;;;;;6119177;29;20043;-86
2021/12/30 11:23:17;;;;;;;2.50;2.30;;;16.50;99.90;;;;;;6115621;29;20089;-82
2021/12/30 11:26:17;;;;;;;2.22;2.00;;;16.50;99.90;;;;;;6201721;28;20439;-78
2021/12/30 11:29:18;;;;;;;5.18;3.47;;;16.50;99.90;;;;;;6217794;28;20040;-80
2021/12/30 11:32:23;;;;;;;10.60;9.50;;;16.40;99.90;;;;;;6237524;28;20042;-86
2021/12/30 11:35:25;;;;;;;22.75;16.95;;;16.40;99.90;;;;;;6203337;28;20491;-87
2021/12/30 11:38:25;;;;;;;17.27;9.57;;;16.90;99.90;;;;;;6210785;28;20496;-82
2021/12/30 11:41:28;;;;;;;4.97;2.47;;;17.30;99.90;;;;;;6212824;28;20034;-84
2021/12/30 11:44:31;;;;;;;;;;;17.50;99.90;;;;;;6207874;28;20034;-80
2021/12/30 11:47:32;;;;;;;9.60;3.13;;;17.50;99.90;;;;;;6237187;28;19991;-84
2021/12/30 11:50:37;;;;;;;2.20;2.00;;;17.70;99.90;;;;;;6257301;28;20483;-81
2021/12/30 11:53:38;;;;;;;2.80;1.30;;;17.70;99.90;;;;;;6227478;28;20218;-81
2021/12/30 11:56:38;;;;;;;1.27;0.95;;;17.70;99.90;;;;;;6231838;28;20862;-78
2021/12/30 11:59:40;;;;;;;0.80;0.80;;;17.50;99.90;;;;;;6245559;28;20130;-78
2021/12/30 12:02:40;;;;;;;1.30;1.20;;;17.20;99.90;;;;;;6209263;28;20033;-78
2021/12/30 12:05:41;;;;;;;0.85;0.85;;;17.10;99.90;;;;;;6227204;28;20036;-83
2021/12/30 12:08:43;;;;;;;2.03;1.83;;;17.00;99.90;;;;;;6264656;28;20029;-81
2021/12/30 12:11:55;;;;;;;0.88;0.63;;;16.70;99.90;;;;;;6233183;28;20063;-84
2021/12/30 12:14:59;;;;;;;0.30;0.30;;;16.80;99.90;;;;;;6232763;28;20029;-82
2021/12/30 12:18:12;;;;;;;0.82;0.82;;;16.80;99.90;;;;;;6199564;28;20340;-81
2021/12/30 12:21:13;;;;;;;1.15;0.93;;;16.80;99.90;;;;;;6227950;28;20046;-79
2021/12/30 12:24:25;;;;;;;1.10;1.10;;;17.00;99.90;;;;;;6234691;28;20527;-82
2021/12/30 12:27:33;;;;;;;0.77;0.77;;;17.30;99.90;;;;;;6246412;28;20112;-79
2021/12/30 12:30:35;;;;;;;1.23;0.82;;;17.50;99.90;;;;;;6212212;28;20034;-81
2021/12/30 12:33:37;;;;;;;0.93;0.93;;;17.60;99.90;;;;;;6225979;28;20037;-82
2021/12/30 12:36:38;;;;;;;0.45;0.45;;;17.80;99.90;;;;;;6208691;28;20048;-81
2021/12/30 12:39:39;;;;;;;0.80;0.80;;;17.70;99.90;;;;;;6231057;28;20383;-79
2021/12/30 12:42:50;;;;;;;0.65;0.45;;;17.60;99.90;;;;;;6227590;28;20025;-83
2021/12/30 12:45:53;;;;;;;1.23;1.13;;;17.40;99.90;;;;;;6229217;28;20563;-81
2021/12/30 12:48:54;;;;;;;0.63;0.63;;;17.20;99.90;;;;;;6228606;28;20045;-80
2021/12/30 12:51:55;;;;;;;0.80;0.80;;;17.10;99.90;;;;;;6223777;28;20052;-80
2021/12/30 12:54:55;;;;;;;0.63;0.63;;;16.90;99.90;;;;;;6213211;28;20060;-78
2021/12/30 12:57:56;;;;;;;1.83;0.55;;;16.80;99.90;;;;;;6210816;28;20103;-81
2021/12/30 13:00:57;;;;;;;2.15;0.73;;;16.80;99.90;;;;;;6194826;28;20029;-86
2021/12/30 13:04:03;;;;;;;0.53;0.53;;;16.70;99.90;;;;;;6238875;28;20482;-80
2021/12/30 13:07:09;;;;;;;1.58;0.80;;;16.70;99.90;;;;;;6208321;28;20038;-81
2021/12/30 13:10:11;;;;;;;0.70;0.70;;;16.70;99.90;;;;;;6198954;28;20033;-80
2021/12/30 13:13:11;;;;;;;0.80;0.75;;;16.70;99.90;;;;;;6240812;28;20041;-80
2021/12/30 13:16:33;;;;;;;0.88;0.88;;;16.70;99.90;;;;;;6201696;28;20033;-83
2021/12/30 13:19:41;;;;;;;0.90;0.90;;;16.60;99.90;;;;;;6239692;28;20631;-85
2021/12/30 13:22:42;;;;;;;1.85;1.17;;;16.50;99.90;;;;;;6225375;28;20477;-84
2021/12/30 13:25:43;;;;;;;0.60;0.60;;;16.40;99.90;;;;;;6207647;28;20091;-85
2021/12/30 13:28:49;;;;;;;1.87;1.17;;;16.20;99.90;;;;;;6208129;28;20613;-84
2021/12/30 13:32:05;;;;;;;1.30;0.98;;;16.20;99.90;;;;;;6202466;28;20323;-86
2021/12/30 13:35:08;;;;;;;1.10;0.73;;;16.00;99.90;;;;;;6215298;28;20037;-84
2021/12/30 13:38:09;;;;;;;1.60;1.25;;;16.10;99.90;;;;;;6240868;28;20468;-81
2021/12/30 13:41:17;;;;;;;0.60;0.60;;;15.90;99.90;;;;;;6198994;28;20036;-84
2021/12/30 13:44:19;;;;;;;1.15;1.00;;;15.90;99.90;;;;;;6221992;28;20033;-87
2021/12/30 13:47:22;;;;;;;0.93;0.70;;;16.00;99.90;;;;;;6225587;28;20483;-82
2021/12/30 13:50:23;;;;;;;3.45;1.13;;;16.00;99.90;;;;;;6202924;28;20037;-85
2021/12/30 13:53:26;;;;;;;1.00;1.00;;;16.00;99.90;;;;;;6195127;28;20465;-82
2021/12/30 13:56:27;;;;;;;1.73;1.10;;;15.90;99.90;;;;;;6197102;28;20260;-82
2021/12/30 13:59:31;;;;;;;1.05;0.95;;;15.90;99.90;;;;;;6199392;28;20416;-85
2021/12/30 14:02:32;;;;;;;1.05;1.05;;;15.80;99.90;;;;;;6228714;28;20044;-88
2021/12/30 14:05:33;;;;;;;1.40;1.30;;;15.40;99.90;;;;;;6207442;28;20029;-83
2021/12/30 14:08:55;;;;;;;1.65;1.50;;;15.70;99.90;;;;;;6220753;28;20030;-94
2021/12/30 14:12:00;;;;;;;1.75;1.65;;;15.40;99.90;;;;;;6200828;28;20041;-86
2021/12/30 14:15:18;;;;;;;1.50;1.40;;;15.50;99.90;;;;;;6201242;28;20387;-92
2021/12/30 14:18:18;;;;;;;1.08;0.98;;;15.30;99.90;;;;;;6206296;28;20037;-90
2021/12/30 14:21:20;;;;;;;1.73;1.20;;;15.30;99.90;;;;;;6198705;28;20068;-88
2021/12/30 14:24:22;;;;;;;1.48;1.15;;;15.20;99.90;;;;;;6204069;28;20157;-87
2021/12/30 14:27:25;;;;;;;;;;;15.30;99.90;;;;;;6222993;28;20041;-88
2021/12/30 14:30:33;;;;;;;1.52;1.42;;;15.10;99.90;;;;;;6221989;28;19954;-84
2021/12/30 14:33:34;;;;;;;2.90;2.30;;;15.20;99.90;;;;;;6222153;28;20044;-87
2021/12/30 14:36:55;;;;;;;3.58;2.88;;;15.20;99.90;;;;;;6205798;28;20065;-89
2021/12/30 14:39:57;;;;;;;1.50;1.30;;;15.10;99.90;;;;;;6232701;28;20044;-88
2021/12/30 14:43:01;;;;;;;1.20;1.10;;;15.10;99.90;;;;;;6202888;28;20041;-91
2021/12/30 14:46:12;;;;;;;2.15;2.00;;;15.20;99.90;;;;;;6200526;28;20097;-87
2021/12/30 14:49:17;;;;;;;1.02;1.02;;;15.30;99.90;;;;;;6218062;28;20051;-89
2021/12/30 14:52:24;;;;;;;1.13;1.02;;;15.20;99.90;;;;;;6215458;28;20076;-88
2021/12/30 14:55:35;;;;;;;1.40;1.40;;;15.20;99.90;;;;;;6211966;28;20029;-87
2021/12/30 14:58:36;;;;;;;1.90;1.80;;;;;;;;;;6213488;28;20078;-88
2021/12/30 15:01:38;;;;;;;2.15;1.70;;;;;;;;;;6214705;28;20065;-87
2021/12/30 15:04:39;;;;;;;0.77;0.77;;;;;;;;;;6212625;28;20038;-86
2021/12/30 15:07:40;;;;;;;1.85;1.55;;;;;;;;;;6211600;28;20032;-83
2021/12/30 15:10:41;;;;;;;8.60;3.78;;;;;;;;;;6215880;28;20158;-81
2021/12/30 15:13:42;;;;;;;1.63;1.40;;;;;;;;;;6252098;28;20109;-89
2021/12/30 15:16:43;;;;;;;1.20;1.20;;;15.20;99.90;;;;;;6221945;28;20040;-86
2021/12/30 15:19:43;;;;;;;6.05;3.40;;;15.20;99.90;;;;;;6226448;28;20403;-91
2021/12/30 15:22:44;;;;;;;5.38;3.08;;;15.20;99.90;;;;;;6208211;28;20541;-89
2021/12/30 15:25:45;;;;;;;6.30;2.72;;;15.20;99.90;;;;;;6207978;28;20559;-90
2021/12/30 15:28:49;;;;;;;3.15;2.38;;;14.90;99.90;;;;;;6206950;28;20026;-94
2021/12/30 15:31:50;;;;;;;21.40;16.25;;;14.90;99.90;;;;;;6216448;28;20039;-89
2021/12/30 15:34:52;;;;;;;3.75;3.08;;;14.80;99.90;;;;;;6208351;28;20109;-87
2021/12/30 15:38:29;;;;;;;;;;;14.80;99.90;;;;;;6228844;28;20055;-93
2021/12/30 15:41:31;;;;;;;6.90;6.40;;;;;;;;;;6145635;28;19969;-92
2021/12/30 15:44:49;;;;;;;;;;;14.70;99.90;;;;;;6148620;28;20552;-93
2021/12/30 15:47:53;;;;;;;1.77;1.67;;;14.80;99.90;;;;;;6131528;28;19914;-92
2021/12/30 15:54:50;;;;;;;0.77;0.77;;;15.00;99.90;;;;;;6165960;28;20042;-90
2021/12/30 15:58:03;;;;;;;1.02;0.82;;;14.70;99.90;;;;;;6131227;28;20042;-93
2021/12/30 16:01:04;;;;;;;0.80;0.80;;;14.40;99.90;;;;;;6121562;28;20089;-90
2021/12/30 16:04:08;;;;;;;1.83;1.73;;;14.20;99.90;;;;;;6128620;28;20392;-92
2021/12/30 16:07:18;;;;;;;2.10;1.90;;;14.40;99.90;;;;;;6122050;28;20098;-93